sensor_id;sensor_type;location;lat;lon;timestamp;pressure;altitude;pressure_sealevel;temperature
8362;BMP180;4218;48.326;14.304;2022-10-23T00:02:09;98778.00;;;7.70
8362;BMP180;4218;48.326;14.304;2022-10-23T00:04:38;98792.00;;;7.70
8362;BMP180;4218;48.326;14.304;2022-10-23T00:07:06;98780.00;;;7.60
8362;BMP180;4218;48.326;14.304;2022-10-23T00:09:34;98765.00;;;7.60
8362;BMP180;4218;48.326;14.304;2022-10-23T00:12:00;98783.00;;;7.80
8362;BMP180;4218;48.326;14.304;2022-10-23T00:14:25;98795.00;;;7.80
8362;BMP180;4218;48.326;14.304;2022-10-23T00:16:55;98785.00;;;7.80
8362;BMP180;4218;48.326;14.304;2022-10-23T00:19:24;98781.00;;;7.90
8362;BMP180;4218;48.326;14.304;2022-10-23T00:21:49;98781.00;;;7.80
8362;BMP180;4218;48.326;14.304;2022-10-23T00:24:17;98787.00;;;7.70
8362;BMP180;4218;48.326;14.304;2022-10-23T00:26:48;98784.00;;;7.80
8362;BMP180;4218;48.326;14.304;2022-10-23T00:29:17;98769.00;;;7.70
8362;BMP180;4218;48.326;14.304;2022-10-23T00:31:49;98762.00;;;7.70
8362;BMP180;4218;48.326;14.304;2022-10-23T00:34:18;98778.00;;;7.70
8362;BMP180;4218;48.326;14.304;2022-10-23T00:36:43;98772.00;;;7.80
8362;BMP180;4218;48.326;14.304;2022-10-23T00:39:12;98765.00;;;7.70
8362;BMP180;4218;48.326;14.304;2022-10-23T00:41:40;98762.00;;;7.50
8362;BMP180;4218;48.326;14.304;2022-10-23T00:46:56;98769.00;;;7.70
8362;BMP180;4218;48.326;14.304;2022-10-23T00:49:35;98755.00;;;7.60
8362;BMP180;4218;48.326;14.304;2022-10-23T00:52:06;98774.00;;;7.60
8362;BMP180;4218;48.326;14.304;2022-10-23T00:54:47;98750.00;;;7.50
8362;BMP180;4218;48.326;14.304;2022-10-23T00:57:17;98750.00;;;7.60
8362;BMP180;4218;48.326;14.304;2022-10-23T00:59:55;98747.00;;;7.60
8362;BMP180;4218;48.326;14.304;2022-10-23T01:02:24;98760.00;;;7.50
8362;BMP180;4218;48.326;14.304;2022-10-23T01:04:52;98735.00;;;7.30
8362;BMP180;4218;48.326;14.304;2022-10-23T01:07:40;98741.00;;;7.20
8362;BMP180;4218;48.326;14.304;2022-10-23T01:13:26;98719.00;;;7.20
8362;BMP180;4218;48.326;14.304;2022-10-23T01:16:06;98737.00;;;7.40
8362;BMP180;4218;48.326;14.304;2022-10-23T01:18:58;98727.00;;;7.30
8362;BMP180;4218;48.326;14.304;2022-10-23T01:24:55;98716.00;;;7.00
8362;BMP180;4218;48.326;14.304;2022-10-23T01:27:45;98703.00;;;6.80
8362;BMP180;4218;48.326;14.304;2022-10-23T01:30:15;98697.00;;;6.80
8362;BMP180;4218;48.326;14.304;2022-10-23T01:32:51;98690.00;;;6.90
8362;BMP180;4218;48.326;14.304;2022-10-23T01:35:22;98690.00;;;7.00
8362;BMP180;4218;48.326;14.304;2022-10-23T01:40:36;98711.00;;;7.30
8362;BMP180;4218;48.326;14.304;2022-10-23T01:43:15;98709.00;;;7.30
8362;BMP180;4218;48.326;14.304;2022-10-23T01:45:45;98705.00;;;7.30
8362;BMP180;4218;48.326;14.304;2022-10-23T01:48:14;98713.00;;;7.20
8362;BMP180;4218;48.326;14.304;2022-10-23T01:50:44;98687.00;;;7.30
8362;BMP180;4218;48.326;14.304;2022-10-23T01:53:11;98710.00;;;7.50
8362;BMP180;4218;48.326;14.304;2022-10-23T01:55:37;98719.00;;;7.50
8362;BMP180;4218;48.326;14.304;2022-10-23T01:58:05;98710.00;;;7.40
8362;BMP180;4218;48.326;14.304;2022-10-23T02:00:46;98707.00;;;7.40
8362;BMP180;4218;48.326;14.304;2022-10-23T02:03:14;98698.00;;;7.40
8362;BMP180;4218;48.326;14.304;2022-10-23T02:05:41;98706.00;;;7.30
8362;BMP180;4218;48.326;14.304;2022-10-23T02:08:11;98704.00;;;7.20
8362;BMP180;4218;48.326;14.304;2022-10-23T02:11:14;98706.00;;;7.20
8362;BMP180;4218;48.326;14.304;2022-10-23T02:14:09;98723.00;;;7.30
8362;BMP180;4218;48.326;14.304;2022-10-23T02:16:46;98718.00;;;7.30
8362;BMP180;4218;48.326;14.304;2022-10-23T02:19:25;98720.00;;;7.30
8362;BMP180;4218;48.326;14.304;2022-10-23T02:21:53;98715.00;;;7.50
8362;BMP180;4218;48.326;14.304;2022-10-23T02:24:30;98706.00;;;7.60
8362;BMP180;4218;48.326;14.304;2022-10-23T02:26:59;98708.00;;;7.70
8362;BMP180;4218;48.326;14.304;2022-10-23T02:29:46;98698.00;;;7.90
8362;BMP180;4218;48.326;14.304;2022-10-23T02:32:13;98696.00;;;7.90
8362;BMP180;4218;48.326;14.304;2022-10-23T02:34:40;98703.00;;;7.90
8362;BMP180;4218;48.326;14.304;2022-10-23T02:37:05;98700.00;;;7.90
8362;BMP180;4218;48.326;14.304;2022-10-23T02:39:43;98705.00;;;7.90
8362;BMP180;4218;48.326;14.304;2022-10-23T02:42:16;98700.00;;;8.00
8362;BMP180;4218;48.326;14.304;2022-10-23T02:45:08;98685.00;;;8.00
8362;BMP180;4218;48.326;14.304;2022-10-23T02:55:53;98683.00;;;8.10
8362;BMP180;4218;48.326;14.304;2022-10-23T03:00:56;98686.00;;;8.20
8362;BMP180;4218;48.326;14.304;2022-10-23T03:03:29;98688.00;;;8.10
8362;BMP180;4218;48.326;14.304;2022-10-23T03:05:56;98683.00;;;8.20
8362;BMP180;4218;48.326;14.304;2022-10-23T03:08:25;98676.00;;;8.20
8362;BMP180;4218;48.326;14.304;2022-10-23T03:10:50;98671.00;;;8.30
8362;BMP180;4218;48.326;14.304;2022-10-23T03:13:18;98661.00;;;8.40
8362;BMP180;4218;48.326;14.304;2022-10-23T03:15:44;98665.00;;;8.30
8362;BMP180;4218;48.326;14.304;2022-10-23T03:18:09;98666.00;;;8.20
8362;BMP180;4218;48.326;14.304;2022-10-23T03:20:38;98668.00;;;8.30
8362;BMP180;4218;48.326;14.304;2022-10-23T03:23:03;98667.00;;;8.40
8362;BMP180;4218;48.326;14.304;2022-10-23T03:25:28;98667.00;;;8.40
8362;BMP180;4218;48.326;14.304;2022-10-23T03:27:54;98644.00;;;8.30
8362;BMP180;4218;48.326;14.304;2022-10-23T03:30:22;98663.00;;;8.30
8362;BMP180;4218;48.326;14.304;2022-10-23T03:32:48;98649.00;;;8.30
8362;BMP180;4218;48.326;14.304;2022-10-23T03:35:22;98661.00;;;8.30
8362;BMP180;4218;48.326;14.304;2022-10-23T03:37:47;98668.00;;;8.30
8362;BMP180;4218;48.326;14.304;2022-10-23T03:40:13;98667.00;;;8.20
8362;BMP180;4218;48.326;14.304;2022-10-23T03:42:38;98670.00;;;8.10
8362;BMP180;4218;48.326;14.304;2022-10-23T03:45:09;98673.00;;;8.00
8362;BMP180;4218;48.326;14.304;2022-10-23T03:47:35;98662.00;;;8.00
8362;BMP180;4218;48.326;14.304;2022-10-23T03:50:14;98676.00;;;8.10
8362;BMP180;4218;48.326;14.304;2022-10-23T03:52:45;98681.00;;;7.90
8362;BMP180;4218;48.326;14.304;2022-10-23T03:55:11;98675.00;;;7.90
8362;BMP180;4218;48.326;14.304;2022-10-23T03:57:36;98665.00;;;8.00
8362;BMP180;4218;48.326;14.304;2022-10-23T04:00:03;98669.00;;;8.10
8362;BMP180;4218;48.326;14.304;2022-10-23T04:02:29;98683.00;;;8.10
8362;BMP180;4218;48.326;14.304;2022-10-23T04:04:54;98682.00;;;8.10
8362;BMP180;4218;48.326;14.304;2022-10-23T04:07:23;98674.00;;;8.10
8362;BMP180;4218;48.326;14.304;2022-10-23T04:09:48;98680.00;;;8.10
8362;BMP180;4218;48.326;14.304;2022-10-23T04:12:14;98688.00;;;8.20
8362;BMP180;4218;48.326;14.304;2022-10-23T04:14:42;98697.00;;;8.30
8362;BMP180;4218;48.326;14.304;2022-10-23T04:17:07;98698.00;;;8.40
8362;BMP180;4218;48.326;14.304;2022-10-23T04:19:33;98697.00;;;8.50
8362;BMP180;4218;48.326;14.304;2022-10-23T04:21:58;98697.00;;;8.60
8362;BMP180;4218;48.326;14.304;2022-10-23T04:24:24;98695.00;;;8.60
8362;BMP180;4218;48.326;14.304;2022-10-23T04:26:49;98693.00;;;8.70
8362;BMP180;4218;48.326;14.304;2022-10-23T04:29:21;98673.00;;;8.70
8362;BMP180;4218;48.326;14.304;2022-10-23T04:31:49;98689.00;;;8.80
8362;BMP180;4218;48.326;14.304;2022-10-23T04:34:16;98681.00;;;8.80
8362;BMP180;4218;48.326;14.304;2022-10-23T04:36:41;98682.00;;;8.80
8362;BMP180;4218;48.326;14.304;2022-10-23T04:39:07;98686.00;;;8.60
8362;BMP180;4218;48.326;14.304;2022-10-23T04:41:35;98673.00;;;8.60
8362;BMP180;4218;48.326;14.304;2022-10-23T04:44:03;98672.00;;;8.80
8362;BMP180;4218;48.326;14.304;2022-10-23T04:46:31;98666.00;;;8.80
8362;BMP180;4218;48.326;14.304;2022-10-23T04:48:57;98669.00;;;8.80
8362;BMP180;4218;48.326;14.304;2022-10-23T04:51:31;98670.00;;;8.70
8362;BMP180;4218;48.326;14.304;2022-10-23T04:54:05;98650.00;;;8.60
8362;BMP180;4218;48.326;14.304;2022-10-23T04:56:31;98671.00;;;8.60
8362;BMP180;4218;48.326;14.304;2022-10-23T04:58:56;98675.00;;;8.70
8362;BMP180;4218;48.326;14.304;2022-10-23T05:01:21;98673.00;;;8.80
8362;BMP180;4218;48.326;14.304;2022-10-23T05:03:56;98666.00;;;8.80
8362;BMP180;4218;48.326;14.304;2022-10-23T05:06:21;98658.00;;;8.70
8362;BMP180;4218;48.326;14.304;2022-10-23T05:08:47;98663.00;;;8.70
8362;BMP180;4218;48.326;14.304;2022-10-23T05:11:12;98659.00;;;8.70
8362;BMP180;4218;48.326;14.304;2022-10-23T05:13:37;98650.00;;;8.60
8362;BMP180;4218;48.326;14.304;2022-10-23T05:16:03;98642.00;;;8.40
8362;BMP180;4218;48.326;14.304;2022-10-23T05:18:35;98637.00;;;8.60
8362;BMP180;4218;48.326;14.304;2022-10-23T05:21:06;98643.00;;;8.60
8362;BMP180;4218;48.326;14.304;2022-10-23T05:23:34;98641.00;;;8.50
8362;BMP180;4218;48.326;14.304;2022-10-23T05:26:00;98640.00;;;8.50
8362;BMP180;4218;48.326;14.304;2022-10-23T05:28:27;98629.00;;;8.60
8362;BMP180;4218;48.326;14.304;2022-10-23T05:30:56;98639.00;;;8.50
8362;BMP180;4218;48.326;14.304;2022-10-23T05:33:23;98630.00;;;8.60
8362;BMP180;4218;48.326;14.304;2022-10-23T05:35:48;98638.00;;;8.60
8362;BMP180;4218;48.326;14.304;2022-10-23T05:38:14;98639.00;;;8.60
8362;BMP180;4218;48.326;14.304;2022-10-23T05:40:40;98628.00;;;8.60
8362;BMP180;4218;48.326;14.304;2022-10-23T05:43:05;98639.00;;;8.60
8362;BMP180;4218;48.326;14.304;2022-10-23T05:45:30;98633.00;;;8.60
8362;BMP180;4218;48.326;14.304;2022-10-23T05:47:56;98645.00;;;8.60
8362;BMP180;4218;48.326;14.304;2022-10-23T05:50:21;98641.00;;;8.50
8362;BMP180;4218;48.326;14.304;2022-10-23T05:52:47;98651.00;;;8.50
8362;BMP180;4218;48.326;14.304;2022-10-23T05:55:13;98647.00;;;8.30
8362;BMP180;4218;48.326;14.304;2022-10-23T05:57:39;98647.00;;;8.30
8362;BMP180;4218;48.326;14.304;2022-10-23T06:00:05;98639.00;;;8.30
8362;BMP180;4218;48.326;14.304;2022-10-23T06:02:31;98637.00;;;8.10
8362;BMP180;4218;48.326;14.304;2022-10-23T06:04:57;98646.00;;;8.10
8362;BMP180;4218;48.326;14.304;2022-10-23T06:07:24;98643.00;;;8.00
8362;BMP180;4218;48.326;14.304;2022-10-23T06:09:50;98649.00;;;8.00
8362;BMP180;4218;48.326;14.304;2022-10-23T06:12:15;98650.00;;;8.10
8362;BMP180;4218;48.326;14.304;2022-10-23T06:14:41;98635.00;;;8.20
8362;BMP180;4218;48.326;14.304;2022-10-23T06:17:06;98630.00;;;8.20
8362;BMP180;4218;48.326;14.304;2022-10-23T06:19:31;98627.00;;;8.30
8362;BMP180;4218;48.326;14.304;2022-10-23T06:21:57;98635.00;;;8.20
8362;BMP180;4218;48.326;14.304;2022-10-23T06:24:22;98646.00;;;8.20
8362;BMP180;4218;48.326;14.304;2022-10-23T06:26:48;98650.00;;;8.30
8362;BMP180;4218;48.326;14.304;2022-10-23T06:29:13;98663.00;;;8.40
8362;BMP180;4218;48.326;14.304;2022-10-23T06:31:38;98649.00;;;8.50
8362;BMP180;4218;48.326;14.304;2022-10-23T06:34:04;98656.00;;;8.40
8362;BMP180;4218;48.326;14.304;2022-10-23T06:36:32;98664.00;;;8.30
8362;BMP180;4218;48.326;14.304;2022-10-23T06:38:57;98660.00;;;8.20
8362;BMP180;4218;48.326;14.304;2022-10-23T06:41:23;98665.00;;;8.20
8362;BMP180;4218;48.326;14.304;2022-10-23T06:43:49;98665.00;;;8.40
8362;BMP180;4218;48.326;14.304;2022-10-23T06:46:16;98675.00;;;8.40
8362;BMP180;4218;48.326;14.304;2022-10-23T06:48:42;98669.00;;;8.40
8362;BMP180;4218;48.326;14.304;2022-10-23T06:51:12;98678.00;;;8.50
8362;BMP180;4218;48.326;14.304;2022-10-23T06:53:39;98686.00;;;8.30
8362;BMP180;4218;48.326;14.304;2022-10-23T06:56:06;98689.00;;;8.50
8362;BMP180;4218;48.326;14.304;2022-10-23T06:58:33;98677.00;;;8.70
8362;BMP180;4218;48.326;14.304;2022-10-23T07:01:03;98686.00;;;8.70
8362;BMP180;4218;48.326;14.304;2022-10-23T07:03:29;98683.00;;;8.80
8362;BMP180;4218;48.326;14.304;2022-10-23T07:05:54;98693.00;;;8.80
8362;BMP180;4218;48.326;14.304;2022-10-23T07:08:20;98677.00;;;8.70
8362;BMP180;4218;48.326;14.304;2022-10-23T07:10:46;98675.00;;;8.90
8362;BMP180;4218;48.326;14.304;2022-10-23T07:13:12;98671.00;;;8.90
8362;BMP180;4218;48.326;14.304;2022-10-23T07:15:38;98682.00;;;9.00
8362;BMP180;4218;48.326;14.304;2022-10-23T07:18:04;98684.00;;;9.10
8362;BMP180;4218;48.326;14.304;2022-10-23T07:20:30;98679.00;;;9.10
8362;BMP180;4218;48.326;14.304;2022-10-23T07:22:56;98686.00;;;9.20
8362;BMP180;4218;48.326;14.304;2022-10-23T07:25:23;98680.00;;;9.20
8362;BMP180;4218;48.326;14.304;2022-10-23T07:27:49;98685.00;;;9.30
8362;BMP180;4218;48.326;14.304;2022-10-23T07:30:15;98687.00;;;9.40
8362;BMP180;4218;48.326;14.304;2022-10-23T07:32:40;98690.00;;;9.30
8362;BMP180;4218;48.326;14.304;2022-10-23T07:35:07;98688.00;;;9.30
8362;BMP180;4218;48.326;14.304;2022-10-23T07:37:33;98678.00;;;9.20
8362;BMP180;4218;48.326;14.304;2022-10-23T07:39:58;98675.00;;;9.20
8362;BMP180;4218;48.326;14.304;2022-10-23T07:42:23;98674.00;;;9.20
8362;BMP180;4218;48.326;14.304;2022-10-23T07:44:49;98674.00;;;9.30
8362;BMP180;4218;48.326;14.304;2022-10-23T07:47:14;98680.00;;;9.30
8362;BMP180;4218;48.326;14.304;2022-10-23T07:49:39;98665.00;;;9.20
8362;BMP180;4218;48.326;14.304;2022-10-23T07:52:05;98673.00;;;9.20
8362;BMP180;4218;48.326;14.304;2022-10-23T07:54:31;98685.00;;;9.50
8362;BMP180;4218;48.326;14.304;2022-10-23T07:56:57;98682.00;;;9.60
8362;BMP180;4218;48.326;14.304;2022-10-23T07:59:23;98673.00;;;9.70
8362;BMP180;4218;48.326;14.304;2022-10-23T08:01:48;98672.00;;;9.50
8362;BMP180;4218;48.326;14.304;2022-10-23T08:04:14;98657.00;;;9.60
8362;BMP180;4218;48.326;14.304;2022-10-23T08:06:39;98664.00;;;9.70
8362;BMP180;4218;48.326;14.304;2022-10-23T08:09:05;98665.00;;;9.70
8362;BMP180;4218;48.326;14.304;2022-10-23T08:11:30;98665.00;;;9.70
8362;BMP180;4218;48.326;14.304;2022-10-23T08:14:00;98648.00;;;9.80
8362;BMP180;4218;48.326;14.304;2022-10-23T08:16:34;98641.00;;;10.00
8362;BMP180;4218;48.326;14.304;2022-10-23T08:19:03;98639.00;;;10.00
8362;BMP180;4218;48.326;14.304;2022-10-23T08:21:29;98639.00;;;10.00
8362;BMP180;4218;48.326;14.304;2022-10-23T08:23:56;98636.00;;;10.00
8362;BMP180;4218;48.326;14.304;2022-10-23T08:26:23;98643.00;;;10.10
8362;BMP180;4218;48.326;14.304;2022-10-23T08:28:49;98637.00;;;10.20
8362;BMP180;4218;48.326;14.304;2022-10-23T08:31:17;98634.00;;;10.10
8362;BMP180;4218;48.326;14.304;2022-10-23T08:33:43;98637.00;;;10.30
8362;BMP180;4218;48.326;14.304;2022-10-23T08:36:20;98623.00;;;10.40
8362;BMP180;4218;48.326;14.304;2022-10-23T08:38:46;98622.00;;;10.50
8362;BMP180;4218;48.326;14.304;2022-10-23T08:41:30;98626.00;;;10.40
8362;BMP180;4218;48.326;14.304;2022-10-23T08:51:51;98620.00;;;10.70
8362;BMP180;4218;48.326;14.304;2022-10-23T08:54:21;98615.00;;;10.80
8362;BMP180;4218;48.326;14.304;2022-10-23T08:56:50;98625.00;;;10.70
8362;BMP180;4218;48.326;14.304;2022-10-23T08:59:27;98632.00;;;10.60
8362;BMP180;4218;48.326;14.304;2022-10-23T09:02:07;98637.00;;;10.60
8362;BMP180;4218;48.326;14.304;2022-10-23T09:04:37;98639.00;;;10.60
8362;BMP180;4218;48.326;14.304;2022-10-23T09:12:29;98645.00;;;10.40
8362;BMP180;4218;48.326;14.304;2022-10-23T09:18:00;98638.00;;;10.40
8362;BMP180;4218;48.326;14.304;2022-10-23T09:20:33;98627.00;;;10.70
8362;BMP180;4218;48.326;14.304;2022-10-23T09:23:01;98631.00;;;10.60
8362;BMP180;4218;48.326;14.304;2022-10-23T09:25:38;98636.00;;;10.40
8362;BMP180;4218;48.326;14.304;2022-10-23T09:28:04;98625.00;;;10.80
8362;BMP180;4218;48.326;14.304;2022-10-23T09:30:36;98633.00;;;10.70
8362;BMP180;4218;48.326;14.304;2022-10-23T09:38:38;98625.00;;;11.10
8362;BMP180;4218;48.326;14.304;2022-10-23T09:41:32;98623.00;;;11.20
8362;BMP180;4218;48.326;14.304;2022-10-23T09:46:50;98627.00;;;11.50
8362;BMP180;4218;48.326;14.304;2022-10-23T09:49:29;98629.00;;;11.50
8362;BMP180;4218;48.326;14.304;2022-10-23T09:52:05;98634.00;;;11.40
8362;BMP180;4218;48.326;14.304;2022-10-23T09:54:58;98632.00;;;11.60
8362;BMP180;4218;48.326;14.304;2022-10-23T09:57:30;98624.00;;;11.50
8362;BMP180;4218;48.326;14.304;2022-10-23T10:00:03;98625.00;;;11.50
8362;BMP180;4218;48.326;14.304;2022-10-23T10:02:32;98631.00;;;11.90
8362;BMP180;4218;48.326;14.304;2022-10-23T10:04:58;98636.00;;;11.70
8362;BMP180;4218;48.326;14.304;2022-10-23T10:07:29;98644.00;;;12.00
8362;BMP180;4218;48.326;14.304;2022-10-23T10:09:55;98634.00;;;12.00
8362;BMP180;4218;48.326;14.304;2022-10-23T10:12:50;98626.00;;;12.10
8362;BMP180;4218;48.326;14.304;2022-10-23T10:15:27;98623.00;;;12.20
8362;BMP180;4218;48.326;14.304;2022-10-23T10:18:01;98625.00;;;12.10
8362;BMP180;4218;48.326;14.304;2022-10-23T10:23:25;98609.00;;;12.40
8362;BMP180;4218;48.326;14.304;2022-10-23T10:38:01;98583.00;;;12.40
8362;BMP180;4218;48.326;14.304;2022-10-23T10:40:38;98584.00;;;12.30
8362;BMP180;4218;48.326;14.304;2022-10-23T10:43:30;98573.00;;;12.40
8362;BMP180;4218;48.326;14.304;2022-10-23T10:46:08;98568.00;;;12.50
8362;BMP180;4218;48.326;14.304;2022-10-23T10:51:06;98565.00;;;13.00
8362;BMP180;4218;48.326;14.304;2022-10-23T10:56:24;98565.00;;;13.50
8362;BMP180;4218;48.326;14.304;2022-10-23T10:58:55;98563.00;;;13.60
8362;BMP180;4218;48.326;14.304;2022-10-23T11:01:31;98571.00;;;13.60
8362;BMP180;4218;48.326;14.304;2022-10-23T11:06:47;98554.00;;;13.90
8362;BMP180;4218;48.326;14.304;2022-10-23T11:09:27;98549.00;;;13.90
8362;BMP180;4218;48.326;14.304;2022-10-23T11:11:53;98549.00;;;13.90
8362;BMP180;4218;48.326;14.304;2022-10-23T11:14:21;98547.00;;;13.90
8362;BMP180;4218;48.326;14.304;2022-10-23T11:16:50;98536.00;;;14.10
8362;BMP180;4218;48.326;14.304;2022-10-23T11:19:28;98536.00;;;14.20
8362;BMP180;4218;48.326;14.304;2022-10-23T11:24:48;98514.00;;;14.20
8362;BMP180;4218;48.326;14.304;2022-10-23T11:36:20;98487.00;;;14.50
8362;BMP180;4218;48.326;14.304;2022-10-23T11:38:49;98482.00;;;14.70
8362;BMP180;4218;48.326;14.304;2022-10-23T11:41:27;98478.00;;;14.60
8362;BMP180;4218;48.326;14.304;2022-10-23T11:43:59;98474.00;;;14.70
8362;BMP180;4218;48.326;14.304;2022-10-23T11:46:36;98461.00;;;14.80
8362;BMP180;4218;48.326;14.304;2022-10-23T11:49:04;98455.00;;;14.90
8362;BMP180;4218;48.326;14.304;2022-10-23T11:54:05;98453.00;;;14.60
8362;BMP180;4218;48.326;14.304;2022-10-23T11:56:31;98447.00;;;14.80
8362;BMP180;4218;48.326;14.304;2022-10-23T11:58:58;98440.00;;;14.50
8362;BMP180;4218;48.326;14.304;2022-10-23T12:01:42;98441.00;;;14.80
8362;BMP180;4218;48.326;14.304;2022-10-23T12:09:07;98427.00;;;15.30
8362;BMP180;4218;48.326;14.304;2022-10-23T12:11:42;98419.00;;;15.20
8362;BMP180;4218;48.326;14.304;2022-10-23T12:14:44;98415.00;;;15.00
8362;BMP180;4218;48.326;14.304;2022-10-23T12:19:53;98411.00;;;15.00
8362;BMP180;4218;48.326;14.304;2022-10-23T12:22:22;98408.00;;;15.00
8362;BMP180;4218;48.326;14.304;2022-10-23T12:25:23;98404.00;;;15.10
8362;BMP180;4218;48.326;14.304;2022-10-23T12:33:48;98398.00;;;15.40
8362;BMP180;4218;48.326;14.304;2022-10-23T12:39:24;98400.00;;;15.30
8362;BMP180;4218;48.326;14.304;2022-10-23T12:41:49;98392.00;;;15.50
8362;BMP180;4218;48.326;14.304;2022-10-23T12:44:15;98383.00;;;15.80
8362;BMP180;4218;48.326;14.304;2022-10-23T12:46:41;98386.00;;;15.90
8362;BMP180;4218;48.326;14.304;2022-10-23T12:49:19;98388.00;;;15.90
8362;BMP180;4218;48.326;14.304;2022-10-23T12:51:57;98395.00;;;16.20
8362;BMP180;4218;48.326;14.304;2022-10-23T12:54:23;98391.00;;;16.30
8362;BMP180;4218;48.326;14.304;2022-10-23T12:56:48;98379.00;;;16.40
8362;BMP180;4218;48.326;14.304;2022-10-23T12:59:17;98378.00;;;16.30
8362;BMP180;4218;48.326;14.304;2022-10-23T13:01:43;98373.00;;;16.10
8362;BMP180;4218;48.326;14.304;2022-10-23T13:04:28;98365.00;;;16.10
8362;BMP180;4218;48.326;14.304;2022-10-23T13:06:56;98361.00;;;16.00
8362;BMP180;4218;48.326;14.304;2022-10-23T13:09:28;98358.00;;;15.90
8362;BMP180;4218;48.326;14.304;2022-10-23T13:11:54;98362.00;;;16.10
8362;BMP180;4218;48.326;14.304;2022-10-23T13:14:41;98359.00;;;16.00
8362;BMP180;4218;48.326;14.304;2022-10-23T13:17:10;98352.00;;;15.80
8362;BMP180;4218;48.326;14.304;2022-10-23T13:19:36;98350.00;;;15.70
8362;BMP180;4218;48.326;14.304;2022-10-23T13:22:22;98351.00;;;15.80
8362;BMP180;4218;48.326;14.304;2022-10-23T13:24:47;98343.00;;;15.80
8362;BMP180;4218;48.326;14.304;2022-10-23T13:27:31;98346.00;;;15.70
8362;BMP180;4218;48.326;14.304;2022-10-23T13:29:57;98335.00;;;15.80
8362;BMP180;4218;48.326;14.304;2022-10-23T13:32:25;98326.00;;;15.90
8362;BMP180;4218;48.326;14.304;2022-10-23T13:34:54;98333.00;;;16.00
8362;BMP180;4218;48.326;14.304;2022-10-23T13:37:23;98337.00;;;16.10
8362;BMP180;4218;48.326;14.304;2022-10-23T13:40:00;98331.00;;;16.30
8362;BMP180;4218;48.326;14.304;2022-10-23T13:42:26;98325.00;;;16.50
8362;BMP180;4218;48.326;14.304;2022-10-23T13:44:51;98328.00;;;16.30
8362;BMP180;4218;48.326;14.304;2022-10-23T13:47:17;98336.00;;;16.30
8362;BMP180;4218;48.326;14.304;2022-10-23T13:49:42;98320.00;;;16.30
8362;BMP180;4218;48.326;14.304;2022-10-23T13:52:10;98332.00;;;16.40
8362;BMP180;4218;48.326;14.304;2022-10-23T13:54:36;98312.00;;;16.40
8362;BMP180;4218;48.326;14.304;2022-10-23T13:57:02;98330.00;;;16.40
8362;BMP180;4218;48.326;14.304;2022-10-23T13:59:27;98335.00;;;16.40
8362;BMP180;4218;48.326;14.304;2022-10-23T14:01:53;98330.00;;;16.60
8362;BMP180;4218;48.326;14.304;2022-10-23T14:04:18;98323.00;;;16.80
8362;BMP180;4218;48.326;14.304;2022-10-23T14:06:45;98325.00;;;16.50
8362;BMP180;4218;48.326;14.304;2022-10-23T14:09:12;98319.00;;;16.60
8362;BMP180;4218;48.326;14.304;2022-10-23T14:11:38;98328.00;;;16.40
8362;BMP180;4218;48.326;14.304;2022-10-23T14:14:04;98321.00;;;16.20
8362;BMP180;4218;48.326;14.304;2022-10-23T14:16:29;98312.00;;;16.10
8362;BMP180;4218;48.326;14.304;2022-10-23T14:18:55;98299.00;;;16.00
8362;BMP180;4218;48.326;14.304;2022-10-23T14:21:21;98311.00;;;15.90
8362;BMP180;4218;48.326;14.304;2022-10-23T14:23:48;98314.00;;;16.10
8362;BMP180;4218;48.326;14.304;2022-10-23T14:26:17;98311.00;;;16.20
8362;BMP180;4218;48.326;14.304;2022-10-23T14:28:43;98310.00;;;15.90
8362;BMP180;4218;48.326;14.304;2022-10-23T14:31:11;98304.00;;;15.80
8362;BMP180;4218;48.326;14.304;2022-10-23T14:33:37;98310.00;;;15.70
8362;BMP180;4218;48.326;14.304;2022-10-23T14:36:03;98308.00;;;15.80
8362;BMP180;4218;48.326;14.304;2022-10-23T14:38:30;98303.00;;;15.90
8362;BMP180;4218;48.326;14.304;2022-10-23T14:40:55;98304.00;;;16.00
8362;BMP180;4218;48.326;14.304;2022-10-23T14:43:22;98307.00;;;16.10
8362;BMP180;4218;48.326;14.304;2022-10-23T14:45:47;98301.00;;;16.10
8362;BMP180;4218;48.326;14.304;2022-10-23T14:48:13;98311.00;;;16.10
8362;BMP180;4218;48.326;14.304;2022-10-23T14:50:43;98305.00;;;16.00
8362;BMP180;4218;48.326;14.304;2022-10-23T14:53:09;98308.00;;;16.00
8362;BMP180;4218;48.326;14.304;2022-10-23T14:55:34;98312.00;;;16.10
8362;BMP180;4218;48.326;14.304;2022-10-23T14:57:59;98309.00;;;15.90
8362;BMP180;4218;48.326;14.304;2022-10-23T15:00:25;98304.00;;;15.80
8362;BMP180;4218;48.326;14.304;2022-10-23T15:02:53;98301.00;;;15.70
8362;BMP180;4218;48.326;14.304;2022-10-23T15:05:18;98306.00;;;15.60
8362;BMP180;4218;48.326;14.304;2022-10-23T15:07:44;98301.00;;;15.50
8362;BMP180;4218;48.326;14.304;2022-10-23T15:10:09;98287.00;;;15.50
8362;BMP180;4218;48.326;14.304;2022-10-23T15:12:38;98297.00;;;15.40
8362;BMP180;4218;48.326;14.304;2022-10-23T15:15:15;98294.00;;;15.30
8362;BMP180;4218;48.326;14.304;2022-10-23T15:17:47;98296.00;;;15.20
8362;BMP180;4218;48.326;14.304;2022-10-23T15:20:12;98287.00;;;15.10
8362;BMP180;4218;48.326;14.304;2022-10-23T15:22:43;98282.00;;;15.00
8362;BMP180;4218;48.326;14.304;2022-10-23T15:25:09;98285.00;;;14.90
8362;BMP180;4218;48.326;14.304;2022-10-23T15:27:35;98287.00;;;14.80
8362;BMP180;4218;48.326;14.304;2022-10-23T15:30:00;98298.00;;;14.60
8362;BMP180;4218;48.326;14.304;2022-10-23T15:32:26;98296.00;;;14.60
8362;BMP180;4218;48.326;14.304;2022-10-23T15:34:51;98297.00;;;14.50
8362;BMP180;4218;48.326;14.304;2022-10-23T15:37:23;98299.00;;;14.40
8362;BMP180;4218;48.326;14.304;2022-10-23T15:39:49;98295.00;;;14.30
8362;BMP180;4218;48.326;14.304;2022-10-23T15:42:20;98292.00;;;14.20
8362;BMP180;4218;48.326;14.304;2022-10-23T15:44:46;98284.00;;;14.20
8362;BMP180;4218;48.326;14.304;2022-10-23T15:47:11;98301.00;;;14.10
8362;BMP180;4218;48.326;14.304;2022-10-23T15:49:37;98296.00;;;14.00
8362;BMP180;4218;48.326;14.304;2022-10-23T15:52:04;98295.00;;;13.90
8362;BMP180;4218;48.326;14.304;2022-10-23T15:54:30;98291.00;;;13.80
8362;BMP180;4218;48.326;14.304;2022-10-23T15:57:06;98293.00;;;13.80
8362;BMP180;4218;48.326;14.304;2022-10-23T15:59:35;98300.00;;;13.70
8362;BMP180;4218;48.326;14.304;2022-10-23T16:02:00;98302.00;;;13.60
8362;BMP180;4218;48.326;14.304;2022-10-23T16:04:25;98300.00;;;13.50
8362;BMP180;4218;48.326;14.304;2022-10-23T16:06:52;98303.00;;;13.40
8362;BMP180;4218;48.326;14.304;2022-10-23T16:09:17;98295.00;;;13.40
8362;BMP180;4218;48.326;14.304;2022-10-23T16:11:43;98292.00;;;13.40
8362;BMP180;4218;48.326;14.304;2022-10-23T16:14:17;98299.00;;;13.30
8362;BMP180;4218;48.326;14.304;2022-10-23T16:16:42;98296.00;;;13.30
8362;BMP180;4218;48.326;14.304;2022-10-23T16:19:09;98289.00;;;13.40
8362;BMP180;4218;48.326;14.304;2022-10-23T16:21:35;98284.00;;;13.40
8362;BMP180;4218;48.326;14.304;2022-10-23T16:24:05;98290.00;;;13.30